createdAt,value
2022-08-26T00:01:29.759Z,23.60
2022-08-26T00:06:26.491Z,23.53
2022-08-26T00:11:27.207Z,23.42
2022-08-26T00:16:27.743Z,23.30
2022-08-26T00:21:27.504Z,23.18
2022-08-26T00:26:28.473Z,23.06
2022-08-26T00:31:31.225Z,22.97
2022-08-26T00:36:31.885Z,22.88
2022-08-26T00:41:31.500Z,22.80
2022-08-26T00:46:31.592Z,22.71
2022-08-26T00:51:31.615Z,22.62
2022-08-26T00:56:32.572Z,22.55
2022-08-26T01:01:32.693Z,22.48
2022-08-26T01:06:34.128Z,22.40
2022-08-26T01:11:34.623Z,22.30
2022-08-26T01:16:35.285Z,22.20
2022-08-26T01:21:36.085Z,22.09
2022-08-26T01:26:39.492Z,21.99
2022-08-26T01:31:41.372Z,21.89
2022-08-26T01:36:41.657Z,21.79
2022-08-26T01:41:44.068Z,21.69
2022-08-26T01:46:43.670Z,21.60
2022-08-26T01:51:44.116Z,21.52
2022-08-26T01:56:43.648Z,21.44
2022-08-26T02:01:44.710Z,21.38
2022-08-26T02:06:44.644Z,21.32
2022-08-26T02:11:44.704Z,21.28
2022-08-26T02:16:44.716Z,21.24
2022-08-26T02:21:44.639Z,21.22
2022-08-26T02:26:45.753Z,21.20
2022-08-26T02:31:45.669Z,21.19
2022-08-26T02:36:45.680Z,21.17
2022-08-26T02:41:46.865Z,21.15
2022-08-26T02:46:47.922Z,21.09
2022-08-26T02:51:49.122Z,21.00
2022-08-26T02:56:48.630Z,20.91
2022-08-26T03:01:49.284Z,20.79
2022-08-26T03:06:52.969Z,20.67
2022-08-26T03:11:51.671Z,20.58
2022-08-26T03:16:53.544Z,20.52
2022-08-26T03:21:57.841Z,20.47
2022-08-26T03:26:58.640Z,20.42
2022-08-26T03:31:59.034Z,20.38
2022-08-26T03:36:58.872Z,20.35
2022-08-26T03:41:58.736Z,20.35
2022-08-26T03:46:58.776Z,20.42
2022-08-26T03:51:58.692Z,20.56
2022-08-26T03:56:58.728Z,20.73
2022-08-26T04:01:58.991Z,20.90
2022-08-26T04:06:58.691Z,21.08
2022-08-26T04:11:58.755Z,21.28
2022-08-26T04:16:58.869Z,21.47
2022-08-26T04:21:58.685Z,21.64
2022-08-26T04:26:58.757Z,21.79
2022-08-26T04:31:59.873Z,21.91
2022-08-26T04:36:59.736Z,22.01
2022-08-26T04:41:59.854Z,22.11
2022-08-26T04:47:02.964Z,22.19
2022-08-26T04:52:02.819Z,22.28
2022-08-26T04:57:02.714Z,22.37
2022-08-26T05:02:03.401Z,22.47
2022-08-26T05:07:05.828Z,22.56
2022-08-26T05:12:06.732Z,22.67
2022-08-26T05:17:06.815Z,22.78
2022-08-26T05:22:06.739Z,22.88
2022-08-26T05:27:07.504Z,23.01
2022-08-26T05:32:08.741Z,23.14
2022-08-26T05:37:10.729Z,23.28
2022-08-26T05:42:12.751Z,23.42
2022-08-26T05:47:12.790Z,23.56
2022-08-26T05:52:12.758Z,23.72
2022-08-26T05:57:13.454Z,23.86
2022-08-26T06:02:13.771Z,23.97
2022-08-26T06:07:13.791Z,24.07
2022-08-26T06:12:15.362Z,24.11
2022-08-26T06:17:15.987Z,24.13
2022-08-26T06:22:35.318Z,24.17
2022-08-26T06:27:36.369Z,24.25
2022-08-26T06:32:36.791Z,24.35
2022-08-26T06:37:36.830Z,24.45
2022-08-26T06:42:39.396Z,24.62
2022-08-26T06:47:39.878Z,24.77
2022-08-26T06:52:39.801Z,24.87
2022-08-26T06:57:41.122Z,24.88
2022-08-26T07:02:46.144Z,24.81
2022-08-26T07:07:44.801Z,24.73
2022-08-26T07:12:47.280Z,24.76
2022-08-26T07:17:46.916Z,24.95
2022-08-26T07:22:46.801Z,25.24
2022-08-26T07:27:54.047Z,25.52
2022-08-26T07:32:49.301Z,25.66
2022-08-26T07:37:48.825Z,25.70
2022-08-26T07:42:48.891Z,25.77
2022-08-26T07:47:48.948Z,25.88
2022-08-26T07:52:48.928Z,25.96
2022-08-26T07:57:48.870Z,26.01
2022-08-26T08:02:49.729Z,26.05
2022-08-26T08:07:53.410Z,26.06
2022-08-26T08:12:52.157Z,26.08
2022-08-26T08:17:52.209Z,26.19
2022-08-26T08:22:51.872Z,26.39
2022-08-26T08:27:51.876Z,26.59
2022-08-26T08:32:51.861Z,26.76
2022-08-26T08:37:53.781Z,26.89
2022-08-26T08:42:53.903Z,26.91
2022-08-26T08:47:54.634Z,26.88
2022-08-26T08:52:54.995Z,26.80
2022-08-26T08:57:56.879Z,26.58
2022-08-26T09:02:59.645Z,26.36
2022-08-26T09:08:00.028Z,26.30
2022-08-26T09:12:59.984Z,26.31
2022-08-26T09:18:02.484Z,26.30
2022-08-26T09:23:03.915Z,26.31
2022-08-26T09:28:04.974Z,26.38
2022-08-26T09:33:10.042Z,26.49
2022-08-26T09:38:11.666Z,26.60
2022-08-26T09:43:08.956Z,26.71
2022-08-26T09:48:09.085Z,26.93
2022-08-26T09:53:12.973Z,27.27
2022-08-26T09:58:13.347Z,27.65
2022-08-26T10:03:15.681Z,27.85
2022-08-26T10:08:14.993Z,27.87
2022-08-26T10:13:14.990Z,27.81
2022-08-26T10:18:15.381Z,27.82
2022-08-26T10:23:15.361Z,27.87
2022-08-26T10:28:14.990Z,27.92
2022-08-26T10:33:15.244Z,28.03
2022-08-26T10:38:17.081Z,28.11
2022-08-26T10:43:18.008Z,28.12
2022-08-26T10:48:18.092Z,28.15
2022-08-26T10:53:18.010Z,28.11
2022-08-26T10:58:26.071Z,28.03
2022-08-26T11:03:22.098Z,28.06
2022-08-26T11:08:22.083Z,28.32
2022-08-26T11:13:22.430Z,28.76
2022-08-26T11:18:22.121Z,29.27
2022-08-26T11:23:25.916Z,29.52
2022-08-26T11:28:26.027Z,29.39
2022-08-26T11:33:26.061Z,29.11
2022-08-26T11:38:26.046Z,28.94
2022-08-26T11:43:26.122Z,29.00
2022-08-26T11:48:28.628Z,29.31
2022-08-26T11:53:29.920Z,29.66
2022-08-26T11:58:30.112Z,30.02
2022-08-26T12:03:31.200Z,30.28
2022-08-26T12:08:32.173Z,30.41
2022-08-26T12:13:32.363Z,30.49
2022-08-26T12:18:33.182Z,30.70
2022-08-26T12:23:34.206Z,30.93
2022-08-26T12:28:36.191Z,30.93
2022-08-26T12:33:36.212Z,30.91
2022-08-26T12:38:36.813Z,30.93
2022-08-26T12:43:40.284Z,30.91
2022-08-26T12:48:40.250Z,30.62
2022-08-26T12:53:40.146Z,30.29
2022-08-26T12:58:40.294Z,30.27
2022-08-26T13:03:42.549Z,30.47
2022-08-26T13:08:42.127Z,30.64
2022-08-26T13:13:42.121Z,30.69
2022-08-26T13:18:48.266Z,30.68
2022-08-26T13:23:48.130Z,30.70
2022-08-26T13:28:48.654Z,30.73
2022-08-26T13:33:50.155Z,30.72
2022-08-26T13:38:51.894Z,30.63
2022-08-26T13:43:53.113Z,30.43
2022-08-26T13:48:54.134Z,30.23
2022-08-26T13:53:54.175Z,30.05
2022-08-26T13:58:54.230Z,29.70
2022-08-26T14:03:54.233Z,29.33
2022-08-26T14:08:54.443Z,29.02
2022-08-26T14:13:54.220Z,28.80
2022-08-26T14:18:54.357Z,28.74
2022-08-26T14:23:57.821Z,28.63
2022-08-26T14:28:56.268Z,28.51
2022-08-26T14:33:56.168Z,28.47
2022-08-26T14:38:56.175Z,28.38
2022-08-26T14:43:57.540Z,28.33
2022-08-26T14:48:57.576Z,28.38
2022-08-26T14:54:14.419Z,28.42
2022-08-26T14:59:14.319Z,28.34
2022-08-26T15:04:14.401Z,28.28
2022-08-26T15:09:14.333Z,28.27
2022-08-26T15:14:14.870Z,28.08
2022-08-26T15:19:16.269Z,27.89
2022-08-26T15:24:16.386Z,28.04
2022-08-26T15:29:16.351Z,28.45
2022-08-26T15:34:17.254Z,28.78
2022-08-26T15:39:17.421Z,28.90
2022-08-26T15:44:18.018Z,28.75
2022-08-26T15:49:18.838Z,28.50
2022-08-26T15:54:19.477Z,28.23
2022-08-26T15:59:19.335Z,27.94
2022-08-26T16:04:19.684Z,27.61
2022-08-26T16:09:19.316Z,27.34
2022-08-26T16:14:19.332Z,27.14
2022-08-26T16:19:19.358Z,26.99
2022-08-26T16:24:21.583Z,26.84
2022-08-26T16:29:21.422Z,26.68
2022-08-26T16:34:21.328Z,26.47
2022-08-26T16:39:21.360Z,26.19
2022-08-26T16:44:21.762Z,25.88
2022-08-26T16:49:21.966Z,25.58
2022-08-26T16:54:22.448Z,25.30
2022-08-26T16:59:23.029Z,25.06
2022-08-26T17:04:23.708Z,24.86
2022-08-26T17:09:23.442Z,24.70
2022-08-26T17:14:23.347Z,24.59
2022-08-26T17:19:23.444Z,24.48
2022-08-26T17:24:23.412Z,24.38
2022-08-26T17:29:23.362Z,24.30
2022-08-26T17:34:23.365Z,24.21
2022-08-26T17:39:23.420Z,24.12
2022-08-26T17:44:24.012Z,24.05
2022-08-26T17:49:24.490Z,23.97
2022-08-26T17:54:24.349Z,23.88
2022-08-26T17:59:24.422Z,23.79
2022-08-26T18:04:26.647Z,23.72
2022-08-26T18:09:26.359Z,23.67
2022-08-26T18:14:26.463Z,23.62
2022-08-26T18:19:26.544Z,23.56
2022-08-26T18:24:28.862Z,23.52
2022-08-26T18:29:28.941Z,23.47
2022-08-26T18:34:31.593Z,23.42
2022-08-26T18:39:30.422Z,23.36
2022-08-26T18:44:30.483Z,23.30
2022-08-26T18:49:30.519Z,23.23
2022-08-26T18:54:30.409Z,23.18
2022-08-26T18:59:30.706Z,23.13
2022-08-26T19:04:30.437Z,23.07
2022-08-26T19:09:31.101Z,23.02
2022-08-26T19:14:31.476Z,22.97
2022-08-26T19:19:31.592Z,22.93
2022-08-26T19:24:31.536Z,22.90
2022-08-26T19:29:31.569Z,22.88
2022-08-26T19:34:31.513Z,22.87
2022-08-26T19:39:31.452Z,22.86
2022-08-26T19:44:49.837Z,22.84
2022-08-26T19:49:49.747Z,22.82
2022-08-26T19:54:49.470Z,22.79
2022-08-26T19:59:49.504Z,22.75
2022-08-26T20:04:49.457Z,22.72
2022-08-26T20:09:49.992Z,22.68
2022-08-26T20:14:49.454Z,22.65
2022-08-26T20:20:32.758Z,22.62
2022-08-26T20:25:20.730Z,22.58
2022-08-26T20:30:20.503Z,22.54
2022-08-26T20:35:20.593Z,22.49
2022-08-26T20:40:22.130Z,22.43
2022-08-26T20:45:22.596Z,22.36
2022-08-26T20:50:22.889Z,22.29
2022-08-26T20:55:22.490Z,22.22
2022-08-26T21:00:22.852Z,22.18
2022-08-26T21:05:24.508Z,22.14
2022-08-26T21:10:24.612Z,22.11
2022-08-26T21:15:24.562Z,22.09
2022-08-26T21:20:24.647Z,22.06
2022-08-26T21:25:24.672Z,21.99
2022-08-26T21:30:24.583Z,21.93
2022-08-26T21:35:24.626Z,21.88
2022-08-26T21:40:24.728Z,21.83
2022-08-26T21:45:24.644Z,21.77
2022-08-26T21:50:24.656Z,21.70
2022-08-26T21:55:24.678Z,21.63
2022-08-26T22:06:28.165Z,21.49
2022-08-26T22:11:28.694Z,21.44
2022-08-26T22:16:28.917Z,21.38
2022-08-26T22:21:28.908Z,21.31
2022-08-26T22:26:28.647Z,21.22
2022-08-26T22:31:37.114Z,21.12
2022-08-26T22:36:30.658Z,21.01
2022-08-26T22:41:30.581Z,20.93
2022-08-26T22:46:34.330Z,20.88
2022-08-26T22:51:34.702Z,20.83
2022-08-26T22:56:34.705Z,20.77
2022-08-26T23:01:35.181Z,20.72
2022-08-26T23:06:35.681Z,20.67
2022-08-26T23:11:35.715Z,20.62
2022-08-26T23:16:37.908Z,20.57
2022-08-26T23:21:37.685Z,20.49
2022-08-26T23:26:37.813Z,20.40
2022-08-26T23:31:40.719Z,20.34
2022-08-26T23:36:41.761Z,20.31
2022-08-26T23:41:43.620Z,20.27
2022-08-26T23:46:43.644Z,20.22
2022-08-26T23:52:02.095Z,20.17
2022-08-26T23:57:01.718Z,20.13
